sensor_id;sensor_type;location;lat;lon;timestamp;temperature;humidity
66598;DHT22;57424;53.128;6.406;2023-01-19T00:01:23;17.90;47.90
66598;DHT22;57424;53.128;6.406;2023-01-19T00:03:48;17.90;47.90
66598;DHT22;57424;53.128;6.406;2023-01-19T00:06:14;17.90;47.90
66598;DHT22;57424;53.128;6.406;2023-01-19T00:08:40;17.90;47.90
66598;DHT22;57424;53.128;6.406;2023-01-19T00:11:06;17.90;48.00
66598;DHT22;57424;53.128;6.406;2023-01-19T00:13:31;17.90;48.00
66598;DHT22;57424;53.128;6.406;2023-01-19T00:15:57;17.90;47.90
66598;DHT22;57424;53.128;6.406;2023-01-19T00:18:23;17.90;48.00
66598;DHT22;57424;53.128;6.406;2023-01-19T00:20:48;18.00;48.00
66598;DHT22;57424;53.128;6.406;2023-01-19T00:23:15;17.90;47.90
66598;DHT22;57424;53.128;6.406;2023-01-19T00:25:41;17.90;47.80
66598;DHT22;57424;53.128;6.406;2023-01-19T00:28:12;17.90;47.80
66598;DHT22;57424;53.128;6.406;2023-01-19T00:30:38;17.90;47.80
66598;DHT22;57424;53.128;6.406;2023-01-19T00:33:04;17.90;47.80
66598;DHT22;57424;53.128;6.406;2023-01-19T00:35:30;17.90;47.80
66598;DHT22;57424;53.128;6.406;2023-01-19T00:37:59;17.90;47.80
66598;DHT22;57424;53.128;6.406;2023-01-19T00:40:25;17.90;47.60
66598;DHT22;57424;53.128;6.406;2023-01-19T00:42:50;17.90;47.60
66598;DHT22;57424;53.128;6.406;2023-01-19T00:45:20;17.90;47.50
66598;DHT22;57424;53.128;6.406;2023-01-19T00:47:48;17.80;47.40
66598;DHT22;57424;53.128;6.406;2023-01-19T00:50:15;17.80;47.40
66598;DHT22;57424;53.128;6.406;2023-01-19T00:52:43;17.80;47.40
66598;DHT22;57424;53.128;6.406;2023-01-19T00:55:10;17.80;47.40
66598;DHT22;57424;53.128;6.406;2023-01-19T00:57:38;17.80;47.30
66598;DHT22;57424;53.128;6.406;2023-01-19T01:00:07;17.70;47.20
66598;DHT22;57424;53.128;6.406;2023-01-19T01:02:34;17.70;47.30
66598;DHT22;57424;53.128;6.406;2023-01-19T01:04:59;17.80;47.30
66598;DHT22;57424;53.128;6.406;2023-01-19T01:07:28;17.70;47.20
66598;DHT22;57424;53.128;6.406;2023-01-19T01:09:54;17.70;47.20
66598;DHT22;57424;53.128;6.406;2023-01-19T01:12:23;17.70;47.20
66598;DHT22;57424;53.128;6.406;2023-01-19T01:14:49;17.70;47.20
66598;DHT22;57424;53.128;6.406;2023-01-19T01:17:14;17.70;47.20
66598;DHT22;57424;53.128;6.406;2023-01-19T01:19:40;17.70;47.20
66598;DHT22;57424;53.128;6.406;2023-01-19T01:22:07;17.60;47.10
66598;DHT22;57424;53.128;6.406;2023-01-19T01:24:33;17.70;47.20
66598;DHT22;57424;53.128;6.406;2023-01-19T01:26:59;17.60;47.10
66598;DHT22;57424;53.128;6.406;2023-01-19T01:29:24;17.60;47.20
66598;DHT22;57424;53.128;6.406;2023-01-19T01:31:50;17.60;47.20
66598;DHT22;57424;53.128;6.406;2023-01-19T01:34:16;17.60;47.20
66598;DHT22;57424;53.128;6.406;2023-01-19T01:36:41;17.60;47.20
66598;DHT22;57424;53.128;6.406;2023-01-19T01:39:07;17.60;47.20
66598;DHT22;57424;53.128;6.406;2023-01-19T01:41:33;17.60;47.20
66598;DHT22;57424;53.128;6.406;2023-01-19T01:43:59;17.50;47.10
66598;DHT22;57424;53.128;6.406;2023-01-19T01:46:28;17.50;47.10
66598;DHT22;57424;53.128;6.406;2023-01-19T01:49:14;17.50;47.10
66598;DHT22;57424;53.128;6.406;2023-01-19T01:51:46;17.50;47.10
66598;DHT22;57424;53.128;6.406;2023-01-19T01:54:25;17.50;47.10
66598;DHT22;57424;53.128;6.406;2023-01-19T01:56:55;17.50;47.10
66598;DHT22;57424;53.128;6.406;2023-01-19T01:59:31;17.50;47.10
66598;DHT22;57424;53.128;6.406;2023-01-19T02:02:10;17.50;47.10
66598;DHT22;57424;53.128;6.406;2023-01-19T02:05:05;17.50;47.20
66598;DHT22;57424;53.128;6.406;2023-01-19T02:10:54;17.50;47.10
66598;DHT22;57424;53.128;6.406;2023-01-19T02:13:40;17.50;47.10
66598;DHT22;57424;53.128;6.406;2023-01-19T02:16:13;17.40;47.10
66598;DHT22;57424;53.128;6.406;2023-01-19T02:18:39;17.40;47.10
66598;DHT22;57424;53.128;6.406;2023-01-19T02:21:30;17.40;47.10
66598;DHT22;57424;53.128;6.406;2023-01-19T02:24:00;17.40;47.10
66598;DHT22;57424;53.128;6.406;2023-01-19T02:26:32;17.40;47.10
66598;DHT22;57424;53.128;6.406;2023-01-19T02:29:02;17.40;47.10
66598;DHT22;57424;53.128;6.406;2023-01-19T02:31:30;17.40;47.10
66598;DHT22;57424;53.128;6.406;2023-01-19T02:33:56;17.40;47.10
66598;DHT22;57424;53.128;6.406;2023-01-19T02:36:25;17.30;47.10
66598;DHT22;57424;53.128;6.406;2023-01-19T02:38:52;17.40;47.20
66598;DHT22;57424;53.128;6.406;2023-01-19T02:41:23;17.40;47.20
66598;DHT22;57424;53.128;6.406;2023-01-19T02:43:50;17.30;47.10
66598;DHT22;57424;53.128;6.406;2023-01-19T02:46:16;17.30;47.10
66598;DHT22;57424;53.128;6.406;2023-01-19T02:48:42;17.30;47.10
66598;DHT22;57424;53.128;6.406;2023-01-19T02:51:16;17.30;47.10
66598;DHT22;57424;53.128;6.406;2023-01-19T02:54:01;17.30;47.10
66598;DHT22;57424;53.128;6.406;2023-01-19T02:59:28;17.30;47.20
66598;DHT22;57424;53.128;6.406;2023-01-19T03:08:05;17.30;47.20
66598;DHT22;57424;53.128;6.406;2023-01-19T03:13:51;17.20;47.10
66598;DHT22;57424;53.128;6.406;2023-01-19T03:16:28;17.20;47.10
66598;DHT22;57424;53.128;6.406;2023-01-19T03:19:07;17.20;47.20
66598;DHT22;57424;53.128;6.406;2023-01-19T03:21:36;17.20;47.20
66598;DHT22;57424;53.128;6.406;2023-01-19T03:24:03;17.20;47.20
66598;DHT22;57424;53.128;6.406;2023-01-19T03:26:37;17.20;47.20
66598;DHT22;57424;53.128;6.406;2023-01-19T03:29:04;17.20;47.30
66598;DHT22;57424;53.128;6.406;2023-01-19T03:31:32;17.20;47.20
66598;DHT22;57424;53.128;6.406;2023-01-19T03:34:02;17.20;47.30
66598;DHT22;57424;53.128;6.406;2023-01-19T03:36:33;17.10;47.20
66598;DHT22;57424;53.128;6.406;2023-01-19T03:39:00;17.10;47.20
66598;DHT22;57424;53.128;6.406;2023-01-19T03:41:27;17.10;47.30
66598;DHT22;57424;53.128;6.406;2023-01-19T03:43:54;17.10;47.20
66598;DHT22;57424;53.128;6.406;2023-01-19T03:46:22;17.10;47.30
66598;DHT22;57424;53.128;6.406;2023-01-19T03:48:48;17.10;47.20
66598;DHT22;57424;53.128;6.406;2023-01-19T03:51:15;17.10;47.30
66598;DHT22;57424;53.128;6.406;2023-01-19T03:53:41;17.10;47.30
66598;DHT22;57424;53.128;6.406;2023-01-19T03:56:19;17.10;47.30
66598;DHT22;57424;53.128;6.406;2023-01-19T03:58:45;17.10;47.30
66598;DHT22;57424;53.128;6.406;2023-01-19T04:01:11;17.10;47.30
66598;DHT22;57424;53.128;6.406;2023-01-19T04:03:36;17.10;47.30
66598;DHT22;57424;53.128;6.406;2023-01-19T04:06:02;17.10;47.30
66598;DHT22;57424;53.128;6.406;2023-01-19T04:08:27;17.00;47.20
66598;DHT22;57424;53.128;6.406;2023-01-19T04:10:53;17.00;47.30
66598;DHT22;57424;53.128;6.406;2023-01-19T04:13:18;17.00;47.20
66598;DHT22;57424;53.128;6.406;2023-01-19T04:15:44;17.00;47.30
66598;DHT22;57424;53.128;6.406;2023-01-19T04:18:09;17.00;47.30
66598;DHT22;57424;53.128;6.406;2023-01-19T04:20:36;17.00;47.30
66598;DHT22;57424;53.128;6.406;2023-01-19T04:23:01;17.00;47.30
66598;DHT22;57424;53.128;6.406;2023-01-19T04:25:27;17.00;47.30
66598;DHT22;57424;53.128;6.406;2023-01-19T04:27:53;17.00;47.30
66598;DHT22;57424;53.128;6.406;2023-01-19T04:30:19;17.00;47.30
66598;DHT22;57424;53.128;6.406;2023-01-19T04:32:45;17.00;47.30
66598;DHT22;57424;53.128;6.406;2023-01-19T04:35:11;17.00;47.30
66598;DHT22;57424;53.128;6.406;2023-01-19T04:37:36;16.90;47.30
66598;DHT22;57424;53.128;6.406;2023-01-19T04:40:03;17.00;47.40
66598;DHT22;57424;53.128;6.406;2023-01-19T04:42:28;16.90;47.30
66598;DHT22;57424;53.128;6.406;2023-01-19T04:44:54;16.90;47.30
66598;DHT22;57424;53.128;6.406;2023-01-19T04:47:19;16.90;47.40
66598;DHT22;57424;53.128;6.406;2023-01-19T04:49:45;16.90;47.40
66598;DHT22;57424;53.128;6.406;2023-01-19T04:52:10;16.90;47.40
66598;DHT22;57424;53.128;6.406;2023-01-19T04:54:36;16.90;47.40
66598;DHT22;57424;53.128;6.406;2023-01-19T04:57:01;16.90;47.40
66598;DHT22;57424;53.128;6.406;2023-01-19T04:59:27;16.90;47.40
66598;DHT22;57424;53.128;6.406;2023-01-19T05:01:53;16.90;47.40
66598;DHT22;57424;53.128;6.406;2023-01-19T05:04:18;16.90;47.40
66598;DHT22;57424;53.128;6.406;2023-01-19T05:06:44;16.90;47.40
66598;DHT22;57424;53.128;6.406;2023-01-19T05:09:10;16.90;47.40
66598;DHT22;57424;53.128;6.406;2023-01-19T05:11:38;16.90;47.40
66598;DHT22;57424;53.128;6.406;2023-01-19T05:14:04;16.90;47.40
66598;DHT22;57424;53.128;6.406;2023-01-19T05:16:29;16.80;47.40
66598;DHT22;57424;53.128;6.406;2023-01-19T05:18:55;16.80;47.40
66598;DHT22;57424;53.128;6.406;2023-01-19T05:21:21;16.80;47.40
66598;DHT22;57424;53.128;6.406;2023-01-19T05:23:46;16.80;47.40
66598;DHT22;57424;53.128;6.406;2023-01-19T05:26:12;16.80;47.40
66598;DHT22;57424;53.128;6.406;2023-01-19T05:28:37;16.80;47.40
66598;DHT22;57424;53.128;6.406;2023-01-19T05:31:03;16.80;47.50
66598;DHT22;57424;53.128;6.406;2023-01-19T05:33:29;16.80;47.40
66598;DHT22;57424;53.128;6.406;2023-01-19T05:35:54;16.80;47.40
66598;DHT22;57424;53.128;6.406;2023-01-19T05:38:20;16.80;47.50
66598;DHT22;57424;53.128;6.406;2023-01-19T05:40:46;16.80;47.40
66598;DHT22;57424;53.128;6.406;2023-01-19T05:43:13;16.80;47.50
66598;DHT22;57424;53.128;6.406;2023-01-19T05:45:38;16.80;47.40
66598;DHT22;57424;53.128;6.406;2023-01-19T05:48:04;16.70;47.40
66598;DHT22;57424;53.128;6.406;2023-01-19T05:50:31;16.70;47.40
66598;DHT22;57424;53.128;6.406;2023-01-19T05:52:56;16.70;47.40
66598;DHT22;57424;53.128;6.406;2023-01-19T05:55:22;16.70;47.40
66598;DHT22;57424;53.128;6.406;2023-01-19T05:57:48;16.70;47.40
66598;DHT22;57424;53.128;6.406;2023-01-19T06:00:14;16.70;47.40
66598;DHT22;57424;53.128;6.406;2023-01-19T06:02:40;16.70;47.40
66598;DHT22;57424;53.128;6.406;2023-01-19T06:05:06;16.70;47.40
66598;DHT22;57424;53.128;6.406;2023-01-19T06:07:32;16.70;47.40
66598;DHT22;57424;53.128;6.406;2023-01-19T06:09:58;16.70;47.50
66598;DHT22;57424;53.128;6.406;2023-01-19T06:12:23;16.70;47.50
66598;DHT22;57424;53.128;6.406;2023-01-19T06:14:49;16.70;47.50
66598;DHT22;57424;53.128;6.406;2023-01-19T06:17:16;16.60;47.40
66598;DHT22;57424;53.128;6.406;2023-01-19T06:19:41;16.60;47.40
66598;DHT22;57424;53.128;6.406;2023-01-19T06:22:07;16.60;47.40
66598;DHT22;57424;53.128;6.406;2023-01-19T06:24:32;16.60;47.40
66598;DHT22;57424;53.128;6.406;2023-01-19T06:26:58;16.60;48.20
66598;DHT22;57424;53.128;6.406;2023-01-19T06:29:25;16.60;47.50
66598;DHT22;57424;53.128;6.406;2023-01-19T06:31:51;16.60;47.50
66598;DHT22;57424;53.128;6.406;2023-01-19T06:34:16;16.60;47.50
66598;DHT22;57424;53.128;6.406;2023-01-19T06:36:43;16.60;47.50
66598;DHT22;57424;53.128;6.406;2023-01-19T06:39:09;16.60;47.40
66598;DHT22;57424;53.128;6.406;2023-01-19T06:41:35;16.60;47.50
66598;DHT22;57424;53.128;6.406;2023-01-19T06:44:01;16.60;47.50
66598;DHT22;57424;53.128;6.406;2023-01-19T06:46:26;16.60;47.50
66598;DHT22;57424;53.128;6.406;2023-01-19T06:48:53;16.60;47.50
66598;DHT22;57424;53.128;6.406;2023-01-19T06:51:19;16.60;47.40
66598;DHT22;57424;53.128;6.406;2023-01-19T06:53:45;16.60;47.50
66598;DHT22;57424;53.128;6.406;2023-01-19T06:56:10;16.60;47.50
66598;DHT22;57424;53.128;6.406;2023-01-19T06:58:36;16.70;47.50
66598;DHT22;57424;53.128;6.406;2023-01-19T07:01:05;16.70;47.50
66598;DHT22;57424;53.128;6.406;2023-01-19T07:03:32;16.70;47.50
66598;DHT22;57424;53.128;6.406;2023-01-19T07:05:59;16.70;47.50
66598;DHT22;57424;53.128;6.406;2023-01-19T07:08:30;16.70;47.50
66598;DHT22;57424;53.128;6.406;2023-01-19T07:11:03;16.70;47.50
66598;DHT22;57424;53.128;6.406;2023-01-19T07:13:34;16.70;47.70
66598;DHT22;57424;53.128;6.406;2023-01-19T07:16:04;16.80;47.90
66598;DHT22;57424;53.128;6.406;2023-01-19T07:18:30;16.80;48.10
66598;DHT22;57424;53.128;6.406;2023-01-19T07:20:59;16.80;48.20
66598;DHT22;57424;53.128;6.406;2023-01-19T07:23:25;16.90;48.50
66598;DHT22;57424;53.128;6.406;2023-01-19T07:25:55;16.90;48.60
66598;DHT22;57424;53.128;6.406;2023-01-19T07:28:20;16.90;48.60
66598;DHT22;57424;53.128;6.406;2023-01-19T07:30:50;17.00;48.80
66598;DHT22;57424;53.128;6.406;2023-01-19T07:33:15;17.00;48.80
66598;DHT22;57424;53.128;6.406;2023-01-19T07:35:45;17.00;48.80
66598;DHT22;57424;53.128;6.406;2023-01-19T07:38:12;17.10;49.00
66598;DHT22;57424;53.128;6.406;2023-01-19T07:40:38;17.10;49.10
66598;DHT22;57424;53.128;6.406;2023-01-19T07:43:03;17.10;49.10
66598;DHT22;57424;53.128;6.406;2023-01-19T07:45:29;17.10;49.10
66598;DHT22;57424;53.128;6.406;2023-01-19T07:47:54;17.10;49.10
66598;DHT22;57424;53.128;6.406;2023-01-19T07:50:21;17.20;49.10
66598;DHT22;57424;53.128;6.406;2023-01-19T07:52:50;17.20;49.00
66598;DHT22;57424;53.128;6.406;2023-01-19T07:55:18;17.20;49.10
66598;DHT22;57424;53.128;6.406;2023-01-19T07:57:43;17.20;49.10
66598;DHT22;57424;53.128;6.406;2023-01-19T08:00:09;17.30;49.20
66598;DHT22;57424;53.128;6.406;2023-01-19T08:02:35;17.30;49.20
66598;DHT22;57424;53.128;6.406;2023-01-19T08:05:02;17.30;50.00
66598;DHT22;57424;53.128;6.406;2023-01-19T08:07:28;17.30;49.20
66598;DHT22;57424;53.128;6.406;2023-01-19T08:09:53;17.30;49.20
66598;DHT22;57424;53.128;6.406;2023-01-19T08:12:19;17.30;49.10
66598;DHT22;57424;53.128;6.406;2023-01-19T08:14:44;17.40;49.20
66598;DHT22;57424;53.128;6.406;2023-01-19T08:17:13;17.40;49.20
66598;DHT22;57424;53.128;6.406;2023-01-19T08:19:38;17.40;49.10
66598;DHT22;57424;53.128;6.406;2023-01-19T08:22:05;17.50;49.10
66598;DHT22;57424;53.128;6.406;2023-01-19T08:24:31;17.40;49.10
66598;DHT22;57424;53.128;6.406;2023-01-19T08:26:58;17.50;49.40
66598;DHT22;57424;53.128;6.406;2023-01-19T08:29:24;17.50;49.50
66598;DHT22;57424;53.128;6.406;2023-01-19T08:31:50;17.50;49.60
66598;DHT22;57424;53.128;6.406;2023-01-19T08:34:17;17.50;49.60
66598;DHT22;57424;53.128;6.406;2023-01-19T08:36:42;17.50;49.40
66598;DHT22;57424;53.128;6.406;2023-01-19T08:39:09;17.60;49.30
66598;DHT22;57424;53.128;6.406;2023-01-19T08:41:36;17.60;49.20
66598;DHT22;57424;53.128;6.406;2023-01-19T08:44:02;17.60;48.90
66598;DHT22;57424;53.128;6.406;2023-01-19T08:46:27;17.60;48.90
66598;DHT22;57424;53.128;6.406;2023-01-19T08:48:53;17.60;48.80
66598;DHT22;57424;53.128;6.406;2023-01-19T08:51:19;17.60;48.80
66598;DHT22;57424;53.128;6.406;2023-01-19T08:53:44;17.60;48.70
66598;DHT22;57424;53.128;6.406;2023-01-19T08:56:10;17.60;48.70
66598;DHT22;57424;53.128;6.406;2023-01-19T08:58:39;17.60;48.70
66598;DHT22;57424;53.128;6.406;2023-01-19T09:01:06;17.60;48.70
66598;DHT22;57424;53.128;6.406;2023-01-19T09:03:33;17.60;48.60
66598;DHT22;57424;53.128;6.406;2023-01-19T09:05:59;17.70;48.70
66598;DHT22;57424;53.128;6.406;2023-01-19T09:08:25;17.60;48.60
66598;DHT22;57424;53.128;6.406;2023-01-19T09:10:51;17.70;48.70
66598;DHT22;57424;53.128;6.406;2023-01-19T09:13:18;17.70;48.70
66598;DHT22;57424;53.128;6.406;2023-01-19T09:15:44;17.70;48.70
66598;DHT22;57424;53.128;6.406;2023-01-19T09:18:13;17.80;48.80
66598;DHT22;57424;53.128;6.406;2023-01-19T09:20:40;17.80;48.70
66598;DHT22;57424;53.128;6.406;2023-01-19T09:23:10;17.80;48.70
66598;DHT22;57424;53.128;6.406;2023-01-19T09:25:40;17.80;48.70
66598;DHT22;57424;53.128;6.406;2023-01-19T09:28:08;17.80;49.40
66598;DHT22;57424;53.128;6.406;2023-01-19T09:30:35;17.80;48.70
66598;DHT22;57424;53.128;6.406;2023-01-19T09:33:13;17.80;48.70
66598;DHT22;57424;53.128;6.406;2023-01-19T09:35:40;17.80;48.70
66598;DHT22;57424;53.128;6.406;2023-01-19T09:38:07;17.90;48.70
66598;DHT22;57424;53.128;6.406;2023-01-19T09:40:34;17.90;48.70
66598;DHT22;57424;53.128;6.406;2023-01-19T09:50:58;18.00;48.70
66598;DHT22;57424;53.128;6.406;2023-01-19T09:56:09;18.00;48.70
66598;DHT22;57424;53.128;6.406;2023-01-19T09:58:36;18.00;48.70
66598;DHT22;57424;53.128;6.406;2023-01-19T10:01:17;18.00;48.70
66598;DHT22;57424;53.128;6.406;2023-01-19T10:03:49;18.00;48.70
66598;DHT22;57424;53.128;6.406;2023-01-19T10:06:16;18.10;48.80
66598;DHT22;57424;53.128;6.406;2023-01-19T10:09:18;18.10;48.90
66598;DHT22;57424;53.128;6.406;2023-01-19T10:11:53;18.10;49.00
66598;DHT22;57424;53.128;6.406;2023-01-19T10:14:44;18.20;48.90
66598;DHT22;57424;53.128;6.406;2023-01-19T10:18:01;18.20;48.90
66598;DHT22;57424;53.128;6.406;2023-01-19T10:20:15;18.20;48.80
66598;DHT22;57424;53.128;6.406;2023-01-19T10:22:46;18.30;48.80
66598;DHT22;57424;53.128;6.406;2023-01-19T10:25:16;18.30;48.80
66598;DHT22;57424;53.128;6.406;2023-01-19T10:27:43;18.30;48.80
66598;DHT22;57424;53.128;6.406;2023-01-19T10:30:21;18.30;48.70
66598;DHT22;57424;53.128;6.406;2023-01-19T10:32:48;18.40;48.70
66598;DHT22;57424;53.128;6.406;2023-01-19T10:35:16;18.40;48.70
66598;DHT22;57424;53.128;6.406;2023-01-19T10:37:46;18.40;48.80
66598;DHT22;57424;53.128;6.406;2023-01-19T10:42:39;18.40;48.90
66598;DHT22;57424;53.128;6.406;2023-01-19T10:45:21;18.50;49.00
66598;DHT22;57424;53.128;6.406;2023-01-19T10:47:48;18.50;48.80
66598;DHT22;57424;53.128;6.406;2023-01-19T10:50:30;18.50;48.70
66598;DHT22;57424;53.128;6.406;2023-01-19T10:53:00;18.50;48.70
66598;DHT22;57424;53.128;6.406;2023-01-19T10:55:37;18.50;48.70
66598;DHT22;57424;53.128;6.406;2023-01-19T10:58:05;18.50;48.80
66598;DHT22;57424;53.128;6.406;2023-01-19T11:00:40;18.50;48.80
66598;DHT22;57424;53.128;6.406;2023-01-19T11:03:28;18.50;48.80
66598;DHT22;57424;53.128;6.406;2023-01-19T11:08:37;18.50;48.60
66598;DHT22;57424;53.128;6.406;2023-01-19T11:11:03;18.50;48.70
66598;DHT22;57424;53.128;6.406;2023-01-19T11:13:32;18.50;48.50
66598;DHT22;57424;53.128;6.406;2023-01-19T11:18:51;18.50;48.50
66598;DHT22;57424;53.128;6.406;2023-01-19T11:21:24;18.50;48.40
66598;DHT22;57424;53.128;6.406;2023-01-19T11:23:53;18.50;48.40
66598;DHT22;57424;53.128;6.406;2023-01-19T11:28:56;18.50;48.40
66598;DHT22;57424;53.128;6.406;2023-01-19T11:33:55;18.50;48.30
66598;DHT22;57424;53.128;6.406;2023-01-19T11:36:33;18.50;48.40
66598;DHT22;57424;53.128;6.406;2023-01-19T11:39:21;18.60;48.40
66598;DHT22;57424;53.128;6.406;2023-01-19T11:41:53;18.50;48.30
66598;DHT22;57424;53.128;6.406;2023-01-19T11:44:23;18.50;48.30
66598;DHT22;57424;53.128;6.406;2023-01-19T11:46:56;18.50;48.30
66598;DHT22;57424;53.128;6.406;2023-01-19T11:52:23;18.60;48.20
66598;DHT22;57424;53.128;6.406;2023-01-19T11:57:52;18.50;48.20
66598;DHT22;57424;53.128;6.406;2023-01-19T12:00:28;18.50;48.20
66598;DHT22;57424;53.128;6.406;2023-01-19T12:03:07;18.50;48.10
66598;DHT22;57424;53.128;6.406;2023-01-19T12:05:38;18.50;48.20
66598;DHT22;57424;53.128;6.406;2023-01-19T12:08:06;18.50;48.10
66598;DHT22;57424;53.128;6.406;2023-01-19T12:10:38;18.50;48.20
66598;DHT22;57424;53.128;6.406;2023-01-19T12:13:17;18.50;48.80
66598;DHT22;57424;53.128;6.406;2023-01-19T12:15:45;18.60;48.20
66598;DHT22;57424;53.128;6.406;2023-01-19T12:18:27;18.50;48.10
66598;DHT22;57424;53.128;6.406;2023-01-19T12:20:55;18.50;48.70
66598;DHT22;57424;53.128;6.406;2023-01-19T12:23:39;18.50;48.10
66598;DHT22;57424;53.128;6.406;2023-01-19T12:26:31;18.50;48.10
66598;DHT22;57424;53.128;6.406;2023-01-19T12:29:04;18.50;48.00
66598;DHT22;57424;53.128;6.406;2023-01-19T12:31:30;18.50;48.00
66598;DHT22;57424;53.128;6.406;2023-01-19T12:36:52;18.50;48.00
66598;DHT22;57424;53.128;6.406;2023-01-19T12:39:21;18.50;48.00
66598;DHT22;57424;53.128;6.406;2023-01-19T12:41:47;18.50;48.00
66598;DHT22;57424;53.128;6.406;2023-01-19T12:44:19;18.50;48.00
66598;DHT22;57424;53.128;6.406;2023-01-19T12:46:57;18.50;48.00
66598;DHT22;57424;53.128;6.406;2023-01-19T12:52:38;18.50;47.90
66598;DHT22;57424;53.128;6.406;2023-01-19T13:02:47;18.50;47.90
66598;DHT22;57424;53.128;6.406;2023-01-19T13:19:28;18.40;48.40
66598;DHT22;57424;53.128;6.406;2023-01-19T13:21:40;18.40;47.80
66598;DHT22;57424;53.128;6.406;2023-01-19T13:24:10;18.40;47.70
66598;DHT22;57424;53.128;6.406;2023-01-19T13:26:39;18.40;47.70
66598;DHT22;57424;53.128;6.406;2023-01-19T13:29:07;18.40;47.60
66598;DHT22;57424;53.128;6.406;2023-01-19T13:31:37;18.40;47.70
66598;DHT22;57424;53.128;6.406;2023-01-19T13:34:10;18.40;47.60
66598;DHT22;57424;53.128;6.406;2023-01-19T13:36:40;18.40;47.60
66598;DHT22;57424;53.128;6.406;2023-01-19T13:41:46;18.40;47.50
66598;DHT22;57424;53.128;6.406;2023-01-19T13:44:22;18.40;47.60
66598;DHT22;57424;53.128;6.406;2023-01-19T13:46:51;18.40;47.50
66598;DHT22;57424;53.128;6.406;2023-01-19T13:49:28;18.40;47.60
66598;DHT22;57424;53.128;6.406;2023-01-19T13:54:49;18.30;47.50
66598;DHT22;57424;53.128;6.406;2023-01-19T13:57:38;18.30;47.50
66598;DHT22;57424;53.128;6.406;2023-01-19T14:05:26;18.30;47.50
66598;DHT22;57424;53.128;6.406;2023-01-19T14:08:18;18.30;47.50
66598;DHT22;57424;53.128;6.406;2023-01-19T14:13:23;18.30;47.60
66598;DHT22;57424;53.128;6.406;2023-01-19T14:15:56;18.30;47.60
66598;DHT22;57424;53.128;6.406;2023-01-19T14:20:59;18.30;47.50
66598;DHT22;57424;53.128;6.406;2023-01-19T14:29:27;18.20;47.50
66598;DHT22;57424;53.128;6.406;2023-01-19T14:42:34;18.10;47.50
66598;DHT22;57424;53.128;6.406;2023-01-19T14:45:06;18.10;47.50
66598;DHT22;57424;53.128;6.406;2023-01-19T14:47:41;18.10;47.50
66598;DHT22;57424;53.128;6.406;2023-01-19T14:50:19;18.10;47.50
66598;DHT22;57424;53.128;6.406;2023-01-19T14:55:33;18.10;47.80
66598;DHT22;57424;53.128;6.406;2023-01-19T14:57:59;18.10;48.20
66598;DHT22;57424;53.128;6.406;2023-01-19T15:00:25;18.10;48.40
66598;DHT22;57424;53.128;6.406;2023-01-19T15:02:51;18.10;48.50
66598;DHT22;57424;53.128;6.406;2023-01-19T15:05:17;18.10;48.50
66598;DHT22;57424;53.128;6.406;2023-01-19T15:07:44;18.10;48.50
66598;DHT22;57424;53.128;6.406;2023-01-19T15:10:21;18.10;48.60
66598;DHT22;57424;53.128;6.406;2023-01-19T15:12:49;18.10;48.60
66598;DHT22;57424;53.128;6.406;2023-01-19T15:15:17;18.10;48.60
66598;DHT22;57424;53.128;6.406;2023-01-19T15:17:44;18.10;48.70
66598;DHT22;57424;53.128;6.406;2023-01-19T15:20:15;18.10;48.70
66598;DHT22;57424;53.128;6.406;2023-01-19T15:22:41;18.10;48.80
66598;DHT22;57424;53.128;6.406;2023-01-19T15:25:06;18.10;48.80
66598;DHT22;57424;53.128;6.406;2023-01-19T15:27:32;18.10;48.90
66598;DHT22;57424;53.128;6.406;2023-01-19T15:29:58;18.10;49.00
66598;DHT22;57424;53.128;6.406;2023-01-19T15:32:24;18.10;49.30
66598;DHT22;57424;53.128;6.406;2023-01-19T15:34:49;18.10;49.40
66598;DHT22;57424;53.128;6.406;2023-01-19T15:37:15;18.10;49.60
66598;DHT22;57424;53.128;6.406;2023-01-19T15:39:40;18.10;49.70
66598;DHT22;57424;53.128;6.406;2023-01-19T15:42:13;18.10;49.80
66598;DHT22;57424;53.128;6.406;2023-01-19T15:44:38;18.10;49.90
66598;DHT22;57424;53.128;6.406;2023-01-19T15:47:04;18.20;50.00
66598;DHT22;57424;53.128;6.406;2023-01-19T15:49:30;18.20;50.10
66598;DHT22;57424;53.128;6.406;2023-01-19T15:51:55;18.20;50.10
66598;DHT22;57424;53.128;6.406;2023-01-19T15:54:21;18.20;50.10
66598;DHT22;57424;53.128;6.406;2023-01-19T15:56:46;18.20;50.20
66598;DHT22;57424;53.128;6.406;2023-01-19T15:59:14;18.20;50.10
66598;DHT22;57424;53.128;6.406;2023-01-19T16:01:39;18.20;50.20
66598;DHT22;57424;53.128;6.406;2023-01-19T16:04:06;18.20;50.20
66598;DHT22;57424;53.128;6.406;2023-01-19T16:06:34;18.20;50.20
66598;DHT22;57424;53.128;6.406;2023-01-19T16:08:59;18.20;50.80
66598;DHT22;57424;53.128;6.406;2023-01-19T16:11:26;18.20;50.10
66598;DHT22;57424;53.128;6.406;2023-01-19T16:13:53;18.20;50.00
66598;DHT22;57424;53.128;6.406;2023-01-19T16:16:21;18.20;50.00
66598;DHT22;57424;53.128;6.406;2023-01-19T16:18:46;18.20;49.90
66598;DHT22;57424;53.128;6.406;2023-01-19T16:21:12;18.20;49.90
66598;DHT22;57424;53.128;6.406;2023-01-19T16:23:38;18.20;50.00
66598;DHT22;57424;53.128;6.406;2023-01-19T16:26:21;18.20;49.90
66598;DHT22;57424;53.128;6.406;2023-01-19T16:28:47;18.20;49.90
66598;DHT22;57424;53.128;6.406;2023-01-19T16:31:14;18.20;49.90
66598;DHT22;57424;53.128;6.406;2023-01-19T16:33:41;18.20;49.90
66598;DHT22;57424;53.128;6.406;2023-01-19T16:36:36;18.20;49.80
66598;DHT22;57424;53.128;6.406;2023-01-19T16:39:05;18.20;49.80
66598;DHT22;57424;53.128;6.406;2023-01-19T16:41:32;18.20;49.80
66598;DHT22;57424;53.128;6.406;2023-01-19T16:43:58;18.20;49.70
66598;DHT22;57424;53.128;6.406;2023-01-19T16:46:30;18.20;49.60
66598;DHT22;57424;53.128;6.406;2023-01-19T16:49:06;18.20;49.60
66598;DHT22;57424;53.128;6.406;2023-01-19T16:51:32;18.20;49.50
66598;DHT22;57424;53.128;6.406;2023-01-19T16:53:58;18.20;49.50
66598;DHT22;57424;53.128;6.406;2023-01-19T16:56:23;18.10;49.50
66598;DHT22;57424;53.128;6.406;2023-01-19T16:58:56;18.10;49.40
66598;DHT22;57424;53.128;6.406;2023-01-19T17:01:24;18.10;49.40
66598;DHT22;57424;53.128;6.406;2023-01-19T17:03:49;18.20;49.50
66598;DHT22;57424;53.128;6.406;2023-01-19T17:06:16;18.10;49.50
66598;DHT22;57424;53.128;6.406;2023-01-19T17:08:43;18.10;49.50
66598;DHT22;57424;53.128;6.406;2023-01-19T17:11:21;18.10;49.60
66598;DHT22;57424;53.128;6.406;2023-01-19T17:13:51;18.10;49.60
66598;DHT22;57424;53.128;6.406;2023-01-19T17:16:18;18.10;49.60
66598;DHT22;57424;53.128;6.406;2023-01-19T17:18:43;18.10;49.60
66598;DHT22;57424;53.128;6.406;2023-01-19T17:21:09;18.10;49.70
66598;DHT22;57424;53.128;6.406;2023-01-19T17:23:35;18.20;49.70
66598;DHT22;57424;53.128;6.406;2023-01-19T17:26:03;18.10;49.70
66598;DHT22;57424;53.128;6.406;2023-01-19T17:28:29;18.10;49.70